createdAt,value
2023-01-23T00:01:06.498Z,10.88
2023-01-23T00:03:34.091Z,10.73
2023-01-23T00:06:02.391Z,10.98
2023-01-23T00:08:29.193Z,10.80
2023-01-23T00:10:56.044Z,10.20
2023-01-23T00:13:22.887Z,10.06
2023-01-23T00:15:49.559Z,10.19
2023-01-23T00:18:16.303Z,10.41
2023-01-23T00:20:43.272Z,10.27
2023-01-23T00:23:11.006Z,10.54
2023-01-23T00:25:37.830Z,10.67
2023-01-23T00:28:04.608Z,10.49
2023-01-23T00:30:32.428Z,10.90
2023-01-23T00:32:59.141Z,11.25
2023-01-23T00:35:26.411Z,11.31
2023-01-23T00:37:54.666Z,11.04
2023-01-23T00:40:21.858Z,10.96
2023-01-23T00:42:48.860Z,11.10
2023-01-23T00:45:16.436Z,11.16
2023-01-23T00:47:43.073Z,10.84
2023-01-23T00:50:10.700Z,10.83
2023-01-23T00:52:37.285Z,10.90
2023-01-23T00:55:05.405Z,10.93
2023-01-23T00:57:31.986Z,11.00
2023-01-23T00:59:58.620Z,10.88
2023-01-23T01:02:25.549Z,11.31
2023-01-23T01:04:52.951Z,11.11
2023-01-23T01:07:19.491Z,10.94
2023-01-23T01:09:47.229Z,10.72
2023-01-23T01:12:15.399Z,10.82
2023-01-23T01:14:42.005Z,11.00
2023-01-23T01:17:08.572Z,10.95
2023-01-23T01:19:35.132Z,10.94
2023-01-23T01:22:01.932Z,10.87
2023-01-23T01:24:28.485Z,10.68
2023-01-23T01:26:55.102Z,10.70
2023-01-23T01:29:23.237Z,10.61
2023-01-23T01:31:49.982Z,10.61
2023-01-23T01:34:16.617Z,10.78
2023-01-23T01:36:43.248Z,10.79
2023-01-23T01:39:09.885Z,10.63
2023-01-23T01:41:36.679Z,10.52
2023-01-23T01:44:03.580Z,10.76
2023-01-23T01:46:30.890Z,10.91
2023-01-23T01:49:21.439Z,10.69
2023-01-23T01:52:15.495Z,10.47
2023-01-23T01:55:02.015Z,10.52
2023-01-23T01:57:33.918Z,10.77
2023-01-23T02:00:08.936Z,10.70
2023-01-23T02:03:01.288Z,10.38
2023-01-23T02:05:33.036Z,10.63
2023-01-23T02:08:28.412Z,10.82
2023-01-23T02:10:55.235Z,10.89
2023-01-23T02:13:23.652Z,10.66
2023-01-23T02:15:51.386Z,10.54
2023-01-23T02:18:19.027Z,10.28
2023-01-23T02:20:47.382Z,10.09
2023-01-23T02:23:23.072Z,10.02
2023-01-23T02:25:53.691Z,10.05
2023-01-23T02:28:21.092Z,10.17
2023-01-23T02:30:47.766Z,10.26
2023-01-23T02:33:20.608Z,10.43
2023-01-23T02:35:48.160Z,10.25
2023-01-23T02:38:20.291Z,10.33
2023-01-23T02:40:47.183Z,10.36
2023-01-23T02:43:22.272Z,10.31
2023-01-23T02:45:56.298Z,10.64
2023-01-23T02:48:24.190Z,10.98
2023-01-23T02:50:50.890Z,11.06
2023-01-23T02:53:18.184Z,11.16
2023-01-23T02:55:44.965Z,11.17
2023-01-23T02:58:30.778Z,11.12
2023-01-23T03:00:57.591Z,10.98
2023-01-23T03:03:25.038Z,10.91
2023-01-23T03:05:51.994Z,10.63
2023-01-23T03:08:18.668Z,10.77
2023-01-23T03:10:45.339Z,10.82
2023-01-23T03:13:12.082Z,10.75
2023-01-23T03:15:39.147Z,10.73
2023-01-23T03:18:06.015Z,10.84
2023-01-23T03:20:40.364Z,10.91
2023-01-23T03:23:08.181Z,10.99
2023-01-23T03:25:34.748Z,11.12
2023-01-23T03:28:02.495Z,11.12
2023-01-23T03:30:29.354Z,11.09
2023-01-23T03:32:55.947Z,11.08
2023-01-23T03:35:22.611Z,11.25
2023-01-23T03:37:52.406Z,11.37
2023-01-23T03:41:01.416Z,11.29
2023-01-23T03:43:32.494Z,11.17
2023-01-23T03:45:59.914Z,11.16
2023-01-23T03:48:27.888Z,11.28
2023-01-23T03:50:56.028Z,11.23
2023-01-23T03:53:25.049Z,10.76
2023-01-23T03:55:52.380Z,10.71
2023-01-23T03:58:19.655Z,10.73
2023-01-23T04:00:47.432Z,10.64
2023-01-23T04:03:14.332Z,10.86
2023-01-23T04:05:41.587Z,11.06
2023-01-23T04:08:08.146Z,11.24
2023-01-23T04:10:36.263Z,10.83
2023-01-23T04:13:07.623Z,11.01
2023-01-23T04:15:34.316Z,10.84
2023-01-23T04:18:04.420Z,10.76
2023-01-23T04:20:31.288Z,10.92
2023-01-23T04:22:58.542Z,10.96
2023-01-23T04:25:28.485Z,11.06
2023-01-23T04:27:55.332Z,11.22
2023-01-23T04:30:22.520Z,11.38
2023-01-23T04:32:49.299Z,11.58
2023-01-23T04:35:18.218Z,11.47
2023-01-23T04:37:44.959Z,11.43
2023-01-23T04:40:12.051Z,11.78
2023-01-23T04:42:51.216Z,11.69
2023-01-23T04:45:30.504Z,11.47
2023-01-23T04:48:17.379Z,11.43
2023-01-23T04:50:44.241Z,11.61
2023-01-23T04:53:11.309Z,11.12
2023-01-23T04:55:38.437Z,11.47
2023-01-23T04:58:07.641Z,11.41
2023-01-23T05:00:34.232Z,11.26
2023-01-23T05:03:02.555Z,11.63
2023-01-23T05:05:30.250Z,11.57
2023-01-23T05:08:00.034Z,11.46
2023-01-23T05:10:26.687Z,11.24
2023-01-23T05:12:55.309Z,11.11
2023-01-23T05:15:22.414Z,10.90
2023-01-23T05:17:50.637Z,11.05
2023-01-23T05:20:17.679Z,10.91
2023-01-23T05:22:52.307Z,10.96
2023-01-23T05:25:24.331Z,11.11
2023-01-23T05:27:51.268Z,11.12
2023-01-23T05:30:22.131Z,11.17
2023-01-23T05:32:51.532Z,11.10
2023-01-23T05:35:20.758Z,11.01
2023-01-23T05:37:54.139Z,11.11
2023-01-23T05:40:23.840Z,11.02
2023-01-23T05:43:19.603Z,10.83
2023-01-23T05:46:02.305Z,10.84
2023-01-23T05:48:49.396Z,10.64
2023-01-23T05:51:16.471Z,10.57
2023-01-23T05:53:43.934Z,10.55
2023-01-23T05:56:12.670Z,10.56
2023-01-23T05:59:14.550Z,10.78
2023-01-23T06:01:59.773Z,10.75
2023-01-23T06:04:47.789Z,10.47
2023-01-23T06:07:23.892Z,10.40
2023-01-23T06:09:54.938Z,10.45
2023-01-23T06:12:21.657Z,10.43
2023-01-23T06:14:48.501Z,10.25
2023-01-23T06:17:16.841Z,10.43
2023-01-23T06:19:43.814Z,10.41
2023-01-23T06:22:11.011Z,10.08
2023-01-23T06:24:55.567Z,10.11
2023-01-23T06:27:22.178Z,10.12
2023-01-23T06:29:48.964Z,10.17
2023-01-23T06:32:15.571Z,10.40
2023-01-23T06:34:42.995Z,10.45
2023-01-23T06:37:10.287Z,10.26
2023-01-23T06:39:37.744Z,10.60
2023-01-23T06:42:09.764Z,10.56
2023-01-23T06:44:39.845Z,10.30
2023-01-23T06:47:06.635Z,10.31
2023-01-23T06:49:33.474Z,10.41
2023-01-23T06:52:00.107Z,10.44
2023-01-23T06:54:26.900Z,10.54
2023-01-23T06:56:59.356Z,10.62
2023-01-23T06:59:25.885Z,10.18
2023-01-23T07:01:52.665Z,9.97
2023-01-23T07:04:39.642Z,10.18
2023-01-23T07:07:06.355Z,11.26
2023-01-23T07:09:33.354Z,10.07
2023-01-23T07:12:20.497Z,9.73
2023-01-23T07:14:47.024Z,10.02
2023-01-23T07:17:18.295Z,9.93
2023-01-23T07:19:44.942Z,10.14
2023-01-23T07:22:20.223Z,10.20
2023-01-23T07:24:47.710Z,10.01
2023-01-23T07:27:14.971Z,9.92
2023-01-23T07:29:42.682Z,9.97
2023-01-23T07:32:11.138Z,9.98
2023-01-23T07:34:38.162Z,9.94
2023-01-23T07:37:04.772Z,9.79
2023-01-23T07:39:31.560Z,9.74
2023-01-23T07:41:58.089Z,9.92
2023-01-23T07:44:27.968Z,9.81
2023-01-23T07:46:54.708Z,9.97
2023-01-23T07:49:21.273Z,9.85
2023-01-23T07:51:47.854Z,9.98
2023-01-23T07:54:14.798Z,10.13
2023-01-23T07:56:41.373Z,10.25
2023-01-23T07:59:07.994Z,10.17
2023-01-23T08:01:34.574Z,10.58
2023-01-23T08:04:01.255Z,10.81
2023-01-23T08:06:27.791Z,10.83
2023-01-23T08:08:54.367Z,10.96
2023-01-23T08:11:20.924Z,11.07
2023-01-23T08:13:51.046Z,11.10
2023-01-23T08:16:17.962Z,11.03
2023-01-23T08:18:44.587Z,11.16
2023-01-23T08:21:11.428Z,10.84
2023-01-23T08:23:38.928Z,10.23
2023-01-23T08:26:08.508Z,9.87
2023-01-23T08:28:35.688Z,10.02
2023-01-23T08:31:06.668Z,10.26
2023-01-23T08:33:35.038Z,10.25
2023-01-23T08:36:01.662Z,10.36
2023-01-23T08:38:28.355Z,10.37
2023-01-23T08:40:59.749Z,10.54
2023-01-23T08:43:27.013Z,10.73
2023-01-23T08:45:56.596Z,10.74
2023-01-23T08:48:25.132Z,10.55
2023-01-23T08:50:52.885Z,10.66
2023-01-23T08:53:19.461Z,10.61
2023-01-23T08:55:45.965Z,10.52
2023-01-23T08:58:13.038Z,10.59
2023-01-23T09:00:40.012Z,10.76
2023-01-23T09:03:06.668Z,10.67
2023-01-23T09:05:33.208Z,10.64
2023-01-23T09:08:00.118Z,10.60
2023-01-23T09:10:26.924Z,10.55
2023-01-23T09:12:54.551Z,10.93
2023-01-23T09:15:22.474Z,11.01
2023-01-23T09:17:49.589Z,10.88
2023-01-23T09:20:16.748Z,10.94
2023-01-23T09:22:43.314Z,11.04
2023-01-23T09:25:10.527Z,10.95
2023-01-23T09:27:37.075Z,10.69
2023-01-23T09:30:04.561Z,10.81
2023-01-23T09:32:31.227Z,10.76
2023-01-23T09:34:57.837Z,11.00
2023-01-23T09:37:24.428Z,10.82
2023-01-23T09:39:51.053Z,11.00
2023-01-23T09:42:21.841Z,11.12
2023-01-23T09:44:54.234Z,10.94
2023-01-23T09:47:37.280Z,11.03
2023-01-23T09:50:13.111Z,11.13
2023-01-23T09:52:49.866Z,11.09
2023-01-23T09:55:24.970Z,11.06
2023-01-23T09:57:57.394Z,10.97
2023-01-23T10:00:25.369Z,11.32
2023-01-23T10:02:56.681Z,11.41
2023-01-23T10:05:41.227Z,12.11
2023-01-23T10:08:45.878Z,12.54
2023-01-23T10:11:32.588Z,12.54
2023-01-23T10:14:39.647Z,12.31
2023-01-23T10:17:09.589Z,12.38
2023-01-23T10:19:56.249Z,12.09
2023-01-23T10:22:36.002Z,12.33
2023-01-23T10:25:12.625Z,12.00
2023-01-23T10:27:43.855Z,12.14
2023-01-23T10:30:18.480Z,12.40
2023-01-23T10:32:59.484Z,12.37
2023-01-23T10:35:38.475Z,12.47
2023-01-23T10:38:16.535Z,12.16
2023-01-23T10:41:01.799Z,11.87
2023-01-23T10:43:28.373Z,12.08
2023-01-23T10:45:55.100Z,12.02
2023-01-23T10:48:42.970Z,12.21
2023-01-23T10:51:33.814Z,12.02
2023-01-23T10:54:36.846Z,11.96
2023-01-23T10:57:21.555Z,11.95
2023-01-23T11:00:01.378Z,11.95
2023-01-23T11:02:34.782Z,11.85
2023-01-23T11:05:03.702Z,11.61
2023-01-23T11:07:37.723Z,11.55
2023-01-23T11:10:10.281Z,11.59
2023-01-23T11:12:48.975Z,11.62
2023-01-23T11:15:32.141Z,11.82
2023-01-23T11:18:00.657Z,11.71
2023-01-23T11:20:36.071Z,12.00
2023-01-23T11:23:14.337Z,12.03
2023-01-23T11:25:45.768Z,11.79
2023-01-23T11:28:27.923Z,11.85
2023-01-23T11:31:14.106Z,11.99
2023-01-23T11:33:54.518Z,11.92
2023-01-23T11:36:33.393Z,11.71
2023-01-23T11:39:16.849Z,11.64
2023-01-23T11:41:46.039Z,11.62
2023-01-23T11:44:22.872Z,11.44
2023-01-23T11:47:23.902Z,11.64
2023-01-23T11:50:29.246Z,12.02
2023-01-23T11:53:18.017Z,12.20
2023-01-23T11:56:06.394Z,12.33
2023-01-23T11:59:12.307Z,12.01
2023-01-23T12:01:49.278Z,12.04
2023-01-23T12:04:54.004Z,11.96
2023-01-23T12:07:23.028Z,12.19
2023-01-23T12:10:11.222Z,12.35
2023-01-23T12:13:09.579Z,12.13
2023-01-23T12:15:41.873Z,12.48
2023-01-23T12:18:29.225Z,12.56
2023-01-23T12:21:09.228Z,12.15
2023-01-23T12:23:57.003Z,12.05
2023-01-23T12:26:26.799Z,12.30
2023-01-23T12:29:07.323Z,12.33
2023-01-23T12:31:48.341Z,12.07
2023-01-23T12:34:47.838Z,12.20
2023-01-23T12:37:33.178Z,12.35
2023-01-23T12:40:10.005Z,12.44
2023-01-23T12:42:47.520Z,12.26
2023-01-23T12:45:20.869Z,12.39
2023-01-23T12:48:02.742Z,12.31
2023-01-23T12:50:53.517Z,12.11
2023-01-23T12:53:24.705Z,12.33
2023-01-23T12:56:15.285Z,12.17
2023-01-23T12:58:49.758Z,12.25
2023-01-23T13:01:34.625Z,12.29
2023-01-23T13:04:38.833Z,12.19
2023-01-23T13:07:20.755Z,12.14
2023-01-23T13:10:14.482Z,12.20
2023-01-23T13:12:41.262Z,12.47
2023-01-23T13:15:18.905Z,12.45
2023-01-23T13:17:58.003Z,12.42
2023-01-23T13:20:55.662Z,12.51
2023-01-23T13:23:33.313Z,12.62
2023-01-23T13:26:15.202Z,12.67
2023-01-23T13:28:45.587Z,12.42
2023-01-23T13:31:50.283Z,12.25
2023-01-23T13:34:17.055Z,12.40
2023-01-23T13:36:51.715Z,12.40
2023-01-23T13:39:18.287Z,12.28
2023-01-23T13:42:12.350Z,12.49
2023-01-23T13:45:17.667Z,12.36
2023-01-23T14:25:32.297Z,11.98
2023-01-23T14:28:03.941Z,12.21
2023-01-23T14:30:31.599Z,12.12
2023-01-23T14:32:59.210Z,12.02
2023-01-23T14:35:32.416Z,11.97
2023-01-23T14:38:02.120Z,11.74
2023-01-23T14:40:35.057Z,11.77
2023-01-23T14:43:07.727Z,11.69
2023-01-23T14:45:36.176Z,11.59
2023-01-23T14:48:06.655Z,11.72
2023-01-23T14:50:34.392Z,11.77
2023-01-23T14:53:06.941Z,11.62
2023-01-23T14:55:40.689Z,11.69
2023-01-23T14:58:13.446Z,11.63
2023-01-23T15:00:41.951Z,11.49
2023-01-23T15:03:12.480Z,11.59
2023-01-23T15:05:40.977Z,11.71
2023-01-23T15:08:27.618Z,11.82
2023-01-23T15:10:57.512Z,11.90
2023-01-23T15:13:40.487Z,11.67
2023-01-23T15:16:14.767Z,11.42
2023-01-23T15:19:01.442Z,11.48
2023-01-23T15:21:40.091Z,11.53
2023-01-23T15:24:06.749Z,11.44
2023-01-23T15:26:36.625Z,11.46
2023-01-23T15:29:11.178Z,11.37
2023-01-23T15:31:41.447Z,11.35
2023-01-23T15:34:14.616Z,11.43
2023-01-23T15:37:00.223Z,11.51
2023-01-23T15:39:34.523Z,11.52
2023-01-23T15:42:24.839Z,11.53
2023-01-23T15:44:51.546Z,11.41
2023-01-23T15:47:18.112Z,11.45
2023-01-23T15:49:44.924Z,11.54
2023-01-23T15:52:42.375Z,11.66
2023-01-23T15:55:10.417Z,11.83
2023-01-23T15:57:37.014Z,11.90
2023-01-23T16:00:13.885Z,12.22
2023-01-23T16:02:54.744Z,12.34
2023-01-23T16:05:25.922Z,12.04
2023-01-23T16:07:53.942Z,12.02
2023-01-23T16:10:25.213Z,12.17
2023-01-23T16:12:55.084Z,12.40
2023-01-23T16:15:24.639Z,12.43
2023-01-23T16:17:52.118Z,12.51
2023-01-23T16:20:29.075Z,12.57
2023-01-23T16:23:08.433Z,12.52
2023-01-23T16:25:45.034Z,12.10
2023-01-23T16:28:15.157Z,12.26
2023-01-23T16:30:43.456Z,12.08
2023-01-23T16:33:10.573Z,11.80
2023-01-23T16:35:37.413Z,11.86
2023-01-23T16:38:05.067Z,12.02
2023-01-23T16:40:32.672Z,11.88
2023-01-23T16:43:02.531Z,11.70
2023-01-23T16:45:32.535Z,11.91
2023-01-23T16:48:00.275Z,11.88
2023-01-23T16:50:39.280Z,12.01
2023-01-23T16:53:23.994Z,12.07
2023-01-23T16:55:51.624Z,12.18
2023-01-23T16:58:22.285Z,12.19
2023-01-23T17:00:50.384Z,11.88
2023-01-23T17:03:23.262Z,12.22
2023-01-23T17:05:50.135Z,12.13
2023-01-23T17:08:20.343Z,12.17
2023-01-23T17:10:51.103Z,12.41
2023-01-23T17:13:19.577Z,12.25
2023-01-23T17:15:47.373Z,12.16
2023-01-23T17:18:26.265Z,12.06
2023-01-23T17:20:56.412Z,12.05
2023-01-23T17:23:25.389Z,11.86
2023-01-23T17:26:01.531Z,11.75
2023-01-23T17:28:29.081Z,11.80
2023-01-23T17:31:00.244Z,11.91
2023-01-23T17:33:31.402Z,11.97
2023-01-23T17:36:00.259Z,11.65
2023-01-23T17:38:31.251Z,11.61
2023-01-23T17:40:57.901Z,11.89
2023-01-23T17:43:24.644Z,11.78
2023-01-23T17:45:52.263Z,11.91
2023-01-23T17:48:29.023Z,12.03
2023-01-23T17:50:55.960Z,12.15
2023-01-23T17:53:23.937Z,12.38
2023-01-23T17:55:51.445Z,12.34
2023-01-23T17:58:19.351Z,12.34
2023-01-23T18:00:49.017Z,12.22
2023-01-23T18:03:19.594Z,12.21
2023-01-23T18:05:46.249Z,12.24
2023-01-23T18:08:18.826Z,12.24
2023-01-23T18:10:48.072Z,12.04
2023-01-23T18:13:14.774Z,11.62
2023-01-23T18:16:00.021Z,11.56
2023-01-23T18:18:37.339Z,11.77
2023-01-23T18:21:05.845Z,11.96
2023-01-23T18:23:37.133Z,12.05
2023-01-23T18:26:34.937Z,12.11
2023-01-23T18:29:40.625Z,12.21
2023-01-23T18:32:39.109Z,12.27
2023-01-23T18:35:30.435Z,12.26
2023-01-23T18:38:06.671Z,12.27
2023-01-23T18:41:06.395Z,11.92
2023-01-23T18:43:33.139Z,11.82
2023-01-23T18:45:59.919Z,11.93
2023-01-23T18:48:26.856Z,12.27
2023-01-23T18:51:36.419Z,12.02
2023-01-23T18:54:02.972Z,12.02
2023-01-23T18:57:07.545Z,12.08
2023-01-23T18:59:40.032Z,12.29
2023-01-23T19:02:37.552Z,12.41
2023-01-23T19:05:10.378Z,12.47
2023-01-23T19:07:37.646Z,12.41
2023-01-23T19:10:05.598Z,12.38
2023-01-23T19:12:44.866Z,12.37
2023-01-23T19:15:53.316Z,12.46
2023-01-23T19:18:45.782Z,12.62
2023-01-23T19:21:28.139Z,12.58
2023-01-23T19:24:01.821Z,12.40
2023-01-23T19:26:31.975Z,12.05
2023-01-23T19:29:08.492Z,12.30
2023-01-23T19:31:47.481Z,12.42
2023-01-23T19:34:22.477Z,12.37
2023-01-23T19:36:49.056Z,12.48
2023-01-23T19:39:15.696Z,12.42
2023-01-23T19:41:45.509Z,12.50
2023-01-23T19:44:14.476Z,12.56
2023-01-23T19:46:42.448Z,12.49
2023-01-23T19:49:10.745Z,12.21
2023-01-23T19:51:38.629Z,12.04
2023-01-23T19:54:09.185Z,11.97
2023-01-23T19:56:36.607Z,12.31
2023-01-23T19:59:03.259Z,12.40
2023-01-23T20:01:39.965Z,12.16
2023-01-23T20:04:11.891Z,12.21
2023-01-23T20:06:40.404Z,12.15
2023-01-23T20:09:08.139Z,12.13
2023-01-23T20:11:36.075Z,12.18
2023-01-23T20:14:03.233Z,12.16
2023-01-23T20:16:30.143Z,12.06
2023-01-23T20:18:56.761Z,12.06
2023-01-23T20:21:25.081Z,11.58
2023-01-23T20:23:52.143Z,11.59
2023-01-23T20:26:21.328Z,11.84
2023-01-23T20:28:49.098Z,12.01
2023-01-23T20:31:16.789Z,12.13
2023-01-23T20:33:43.541Z,11.91
2023-01-23T20:36:13.812Z,11.34
2023-01-23T20:38:40.725Z,11.74
2023-01-23T20:41:15.987Z,11.75
2023-01-23T20:43:43.320Z,11.60
2023-01-23T20:46:11.213Z,11.80
2023-01-23T20:48:39.608Z,11.65
2023-01-23T20:51:09.662Z,11.80
2023-01-23T20:53:39.308Z,11.96
2023-01-23T20:56:09.385Z,11.87
2023-01-23T20:59:05.613Z,11.93
2023-01-23T21:01:54.963Z,11.81
2023-01-23T21:04:23.753Z,11.86
2023-01-23T21:06:50.268Z,11.65
2023-01-23T21:09:17.405Z,11.50
2023-01-23T21:11:44.284Z,11.37
2023-01-23T21:14:11.113Z,11.38
2023-01-23T21:16:37.631Z,11.52
2023-01-23T21:19:04.456Z,11.62
2023-01-23T21:21:31.167Z,11.38
2023-01-23T21:23:57.995Z,11.36
2023-01-23T21:26:26.897Z,11.40
2023-01-23T21:28:55.294Z,11.19
2023-01-23T21:31:24.852Z,11.16
2023-01-23T21:33:51.638Z,11.15
2023-01-23T21:36:25.025Z,11.28
2023-01-23T21:38:52.883Z,11.25
2023-01-23T21:41:20.135Z,11.32
2023-01-23T21:43:47.137Z,11.21
2023-01-23T21:46:14.491Z,11.42
2023-01-23T21:48:41.493Z,11.55
2023-01-23T21:51:10.603Z,11.24
2023-01-23T21:53:38.504Z,11.70
2023-01-23T21:56:06.170Z,11.67
2023-01-23T21:58:33.661Z,11.53
2023-01-23T22:01:21.276Z,11.51
2023-01-23T22:03:48.225Z,11.67
2023-01-23T22:06:15.294Z,11.66
2023-01-23T22:08:42.044Z,11.61
2023-01-23T22:11:10.040Z,11.72
2023-01-23T22:13:37.294Z,11.63
2023-01-23T22:16:04.599Z,11.47
2023-01-23T22:18:32.372Z,11.81
2023-01-23T22:21:01.613Z,11.47
2023-01-23T22:23:29.407Z,11.59
2023-01-23T22:25:57.587Z,11.65
2023-01-23T22:28:24.460Z,11.77
2023-01-23T22:30:51.103Z,11.64
2023-01-23T22:33:18.137Z,11.51
2023-01-23T22:35:45.282Z,11.54
2023-01-23T22:38:15.394Z,11.31
2023-01-23T22:40:42.630Z,11.52
2023-01-23T22:43:09.768Z,11.43
2023-01-23T22:45:36.766Z,11.39
2023-01-23T22:48:03.487Z,11.55
2023-01-23T22:50:30.154Z,11.52
2023-01-23T22:52:56.655Z,11.52
2023-01-23T22:55:23.638Z,11.61
2023-01-23T22:57:52.880Z,11.53
2023-01-23T23:00:20.372Z,11.57
2023-01-23T23:02:46.957Z,11.29
2023-01-23T23:05:13.867Z,11.27
2023-01-23T23:07:40.564Z,11.43
2023-01-23T23:10:08.749Z,11.41
2023-01-23T23:12:35.282Z,11.31
2023-01-23T23:15:02.720Z,11.27
2023-01-23T23:17:29.784Z,11.26
2023-01-23T23:19:56.568Z,11.12
2023-01-23T23:22:23.161Z,11.11
2023-01-23T23:24:49.819Z,11.25
2023-01-23T23:27:16.499Z,11.09
2023-01-23T23:29:43.202Z,11.15
2023-01-23T23:32:09.718Z,10.89
2023-01-23T23:34:37.385Z,11.02
2023-01-23T23:37:04.423Z,10.99
2023-01-23T23:39:31.031Z,10.94
2023-01-23T23:41:58.426Z,10.69
2023-01-23T23:44:25.056Z,10.91
2023-01-23T23:46:51.577Z,10.93
2023-01-23T23:49:18.209Z,10.87
2023-01-23T23:51:44.703Z,11.01
2023-01-23T23:54:11.296Z,11.07
2023-01-23T23:56:37.823Z,11.01
2023-01-23T23:59:04.533Z,11.19
